Aeroporto :
LOGIN :

Iscrizione | Disclaimer

   EN    FR    IT 

 










Sommario :    VFR   VFR Marginale   IFR   IFR Intensivo   IFR Molto Intensivo
Visibilità : 
Base nubi : 
>= 8 km
>= 3000ft
5 / 8 km
1000 / 3000 ft
1500m / 5 km
500 / 1000 ft
800 / 1500m
200 / 500 ft
< 800m
< 200 ft
Simboli :   Temporali  Nebbia  Neve Forte  Precipitazioni Forti  Vento > 20 kt
SIGMETs :   Varie  Temporali  Ghiacco  Turbolenza  Onda orograficha  Ceneri Vulcaniche






- Altitudine del aeroporto : 751 ft
- Codice IATA : ENC


LFSN - Nancy Essey

ULTIMO METAR :
  • 061800Z AUTO 05005KT CAVOK 01/M02 Q1036

METARs OBSOLETI :
  • 061730Z AUTO 06005KT CAVOK 01/M02 Q1036
  • 061700Z AUTO 05006KT CAVOK 02/M02 Q1036
  • 061630Z AUTO 05008KT CAVOK 04/M01 Q1036
  • 061600Z AUTO 06012KT CAVOK 05/M01 Q1036
  • 061530Z AUTO 06011KT 9999 FEW030 SCT140 05/M01 Q1036

Previsioni scadute.



MetMap, La meteo Aeronautica in un colpo d'occhio ! - Copyright ORBIFLY Dicembre 2007 - Disclaimer

ORBIFLY MET'MAP TEAM :

Programmazione e sviluppo : Alexandra Zaïnal
Concezione : Baudouin d'Aumeries
Supporto tecnico e logistico : Manuel Goepfert
Aiuto : Marc-Olivier Méhu
Aiuto per la traduzione : Arnaldo La Scala




FONTI E CREDITI :

   NOAA